createdAt,value
2023-10-10T00:01:22.833Z,11.88
2023-10-10T00:04:26.195Z,13.20
2023-10-10T00:07:28.789Z,13.20
2023-10-10T00:10:32.191Z,13.05
2023-10-10T00:13:33.866Z,13.43
2023-10-10T00:16:39.089Z,12.80
2023-10-10T00:19:46.873Z,11.63
2023-10-10T00:22:49.456Z,11.38
2023-10-10T00:25:54.153Z,10.00
2023-10-10T00:28:56.336Z,8.82
2023-10-10T00:32:06.937Z,7.97
2023-10-10T00:35:10.730Z,8.60
2023-10-10T00:38:18.665Z,7.53
2023-10-10T00:41:23.976Z,8.40
2023-10-10T00:44:26.907Z,8.50
2023-10-10T00:47:32.538Z,8.35
2023-10-10T00:50:35.730Z,8.38
2023-10-10T00:56:45.660Z,8.10
2023-10-10T00:59:49.454Z,8.88
2023-10-10T01:03:05.106Z,8.95
2023-10-10T01:06:14.321Z,9.10
2023-10-10T01:09:18.514Z,8.95
2023-10-10T01:12:20.434Z,8.52
2023-10-10T01:15:35.970Z,8.85
2023-10-10T01:18:52.797Z,8.38
2023-10-10T01:21:59.189Z,8.32
2023-10-10T01:25:00.812Z,9.40
2023-10-10T01:28:14.988Z,8.50
2023-10-10T01:31:19.314Z,8.63
2023-10-10T01:34:44.547Z,8.38
2023-10-10T01:37:56.448Z,9.10
2023-10-10T01:41:16.088Z,8.97
2023-10-10T01:44:23.650Z,9.25
2023-10-10T01:47:28.304Z,9.85
2023-10-10T01:50:33.165Z,9.57
2023-10-10T01:53:41.238Z,9.60
2023-10-10T01:56:46.110Z,9.73
2023-10-10T01:59:48.298Z,9.10
2023-10-10T02:02:51.927Z,9.07
2023-10-10T02:05:57.048Z,9.38
2023-10-10T02:09:11.998Z,9.55
2023-10-10T02:12:17.056Z,8.57
2023-10-10T02:15:27.735Z,8.98
2023-10-10T02:18:45.523Z,8.40
2023-10-10T02:21:49.968Z,9.07
2023-10-10T02:24:59.656Z,9.02
2023-10-10T02:28:05.328Z,8.65
2023-10-10T02:31:07.484Z,9.50
2023-10-10T02:34:11.690Z,8.90
2023-10-10T02:37:22.195Z,9.05
2023-10-10T02:40:32.205Z,9.20
2023-10-10T02:43:34.773Z,9.60
2023-10-10T02:46:42.378Z,9.45
2023-10-10T02:49:45.800Z,9.52
2023-10-10T02:52:47.465Z,9.80
2023-10-10T02:55:52.876Z,8.85
2023-10-10T02:58:55.596Z,8.90
2023-10-10T03:01:58.694Z,9.23
2023-10-10T03:05:03.261Z,9.98
2023-10-10T03:08:17.143Z,9.30
2023-10-10T03:11:37.205Z,9.52
2023-10-10T03:14:44.520Z,10.63
2023-10-10T03:18:05.769Z,10.75
2023-10-10T03:21:14.236Z,10.75
2023-10-10T03:24:29.275Z,10.18
2023-10-10T03:27:49.915Z,10.35
2023-10-10T03:31:06.216Z,10.57
2023-10-10T03:34:36.425Z,9.90
2023-10-10T03:37:42.640Z,11.13
2023-10-10T03:41:07.559Z,9.60
2023-10-10T03:44:28.444Z,8.15
2023-10-10T03:47:48.463Z,8.48
2023-10-10T03:51:08.645Z,7.60
2023-10-10T03:54:28.745Z,7.20
2023-10-10T03:57:49.069Z,7.15
2023-10-10T04:01:13.493Z,7.75
2023-10-10T04:04:33.659Z,7.63
2023-10-10T04:07:53.973Z,8.07
2023-10-10T04:11:14.226Z,7.90
2023-10-10T04:14:34.597Z,7.57
2023-10-10T04:17:55.125Z,9.35
2023-10-10T04:21:16.058Z,8.48
2023-10-10T04:24:36.424Z,9.48
2023-10-10T04:27:56.414Z,10.45
2023-10-10T04:31:16.678Z,10.77
2023-10-10T04:34:36.948Z,10.35
2023-10-10T04:37:57.856Z,10.07
2023-10-10T04:41:18.065Z,9.73
2023-10-10T04:44:39.209Z,12.02
2023-10-10T04:47:59.485Z,9.88
2023-10-10T04:51:19.605Z,10.18
2023-10-10T04:54:40.133Z,11.52
2023-10-10T04:58:00.750Z,13.25
2023-10-10T05:01:27.830Z,10.93
2023-10-10T05:04:48.486Z,10.82
2023-10-10T05:08:10.378Z,11.80
2023-10-10T05:11:30.691Z,11.82
2023-10-10T05:14:51.229Z,12.00
2023-10-10T05:18:11.580Z,11.52
2023-10-10T05:21:31.827Z,11.65
2023-10-10T05:24:37.183Z,12.40
2023-10-10T05:27:42.339Z,12.50
2023-10-10T05:30:45.258Z,12.20
2023-10-10T05:33:48.319Z,13.43
2023-10-10T05:36:50.396Z,12.57
2023-10-10T05:39:57.397Z,11.90
2023-10-10T05:42:59.237Z,12.02
2023-10-10T05:46:02.699Z,13.35
2023-10-10T05:49:06.237Z,13.40
2023-10-10T05:52:08.533Z,11.93
2023-10-10T05:55:14.098Z,12.25
2023-10-10T05:58:16.452Z,11.75
2023-10-10T06:01:18.676Z,11.67
2023-10-10T06:04:20.516Z,12.50
2023-10-10T06:07:22.199Z,12.18
2023-10-10T06:10:29.946Z,13.00
2023-10-10T06:13:31.707Z,15.93
2023-10-10T06:16:33.785Z,14.35
2023-10-10T06:19:37.835Z,12.53
2023-10-10T06:22:45.097Z,13.00
2023-10-10T06:25:47.155Z,12.75
2023-10-10T06:28:54.651Z,12.82
2023-10-10T06:31:57.976Z,12.38
2023-10-10T06:35:25.911Z,12.20
2023-10-10T06:38:27.750Z,12.20
2023-10-10T06:41:37.069Z,12.32
2023-10-10T06:44:41.406Z,11.23
2023-10-10T06:47:46.126Z,11.73
2023-10-10T06:50:50.892Z,12.27
2023-10-10T06:53:56.211Z,11.98
2023-10-10T06:57:01.412Z,11.73
2023-10-10T07:00:17.970Z,11.32
2023-10-10T07:03:31.653Z,13.43
2023-10-10T07:06:34.955Z,11.55
2023-10-10T07:09:38.472Z,11.77
2023-10-10T07:12:41.030Z,12.85
2023-10-10T07:15:43.802Z,12.23
2023-10-10T07:18:45.788Z,12.32
2023-10-10T07:21:49.060Z,12.35
2023-10-10T07:24:56.898Z,12.10
2023-10-10T07:28:02.214Z,11.05
2023-10-10T07:31:04.169Z,11.65
2023-10-10T07:34:16.543Z,12.13
2023-10-10T07:37:19.175Z,12.20
2023-10-10T07:40:22.051Z,11.48
2023-10-10T07:43:28.700Z,10.95
2023-10-10T07:46:37.182Z,10.65
2023-10-10T07:49:42.087Z,10.93
2023-10-10T07:52:43.828Z,10.93
2023-10-10T07:55:55.251Z,10.77
2023-10-10T07:58:58.170Z,10.63
2023-10-10T08:02:00.326Z,11.00
2023-10-10T08:05:02.520Z,11.30
2023-10-10T08:08:14.363Z,10.73
2023-10-10T08:11:26.642Z,12.05
2023-10-10T08:14:33.066Z,10.85
2023-10-10T08:17:36.477Z,10.77
2023-10-10T08:20:44.324Z,10.45
2023-10-10T08:23:48.610Z,11.13
2023-10-10T08:26:53.160Z,12.13
2023-10-10T08:29:54.989Z,11.40
2023-10-10T08:32:58.073Z,12.80
2023-10-10T08:36:00.421Z,11.40
2023-10-10T08:39:29.089Z,11.20
2023-10-10T08:42:36.376Z,10.63
2023-10-10T08:45:41.540Z,11.27
2023-10-10T08:48:43.644Z,11.45
2023-10-10T08:51:46.686Z,11.55
2023-10-10T08:54:49.237Z,12.13
2023-10-10T08:57:52.763Z,17.05
2023-10-10T09:00:55.409Z,15.23
2023-10-10T09:03:58.819Z,13.27
2023-10-10T09:07:09.946Z,16.75
2023-10-10T09:10:15.579Z,12.75
2023-10-10T09:13:20.326Z,14.80
2023-10-10T09:16:42.617Z,12.57
2023-10-10T09:19:49.826Z,13.20
2023-10-10T09:23:05.696Z,13.00
2023-10-10T09:26:30.805Z,12.00
2023-10-10T09:29:35.664Z,12.73
2023-10-10T09:32:37.852Z,11.43
2023-10-10T09:35:41.305Z,11.00
2023-10-10T09:38:47.598Z,11.73
2023-10-10T09:41:58.341Z,10.50
2023-10-10T09:45:21.125Z,9.82
2023-10-10T09:48:41.458Z,9.52
2023-10-10T09:51:58.430Z,7.90
2023-10-10T09:55:10.415Z,8.13
2023-10-10T09:58:15.770Z,7.13
2023-10-10T10:01:25.408Z,6.30
2023-10-10T10:04:38.229Z,6.80
2023-10-10T10:11:12.954Z,5.47
2023-10-10T10:14:24.146Z,4.60
2023-10-10T10:17:57.049Z,4.93
2023-10-10T10:21:12.453Z,4.40
2023-10-10T10:24:17.358Z,4.75
2023-10-10T10:27:29.214Z,4.75
2023-10-10T10:30:48.004Z,4.68
2023-10-10T10:34:24.708Z,4.47
2023-10-10T10:37:29.561Z,4.50
2023-10-10T10:40:42.078Z,4.88
2023-10-10T10:43:55.501Z,4.25
2023-10-10T10:46:58.294Z,5.05
2023-10-10T10:50:00.170Z,4.20
2023-10-10T10:53:09.623Z,4.40
2023-10-10T10:56:17.810Z,4.22
2023-10-10T10:59:22.546Z,4.38
2023-10-10T11:02:32.058Z,4.22
2023-10-10T11:05:34.172Z,4.00
2023-10-10T11:12:10.266Z,4.35
2023-10-10T11:15:12.773Z,4.13
2023-10-10T11:18:14.986Z,3.95
2023-10-10T11:21:28.594Z,4.22
2023-10-10T11:24:32.870Z,4.22
2023-10-10T11:27:45.132Z,3.90
2023-10-10T11:30:47.138Z,4.25
2023-10-10T11:33:57.489Z,4.23
2023-10-10T11:37:14.669Z,4.05
2023-10-10T11:40:32.908Z,4.10
2023-10-10T11:43:38.483Z,4.03
2023-10-10T11:46:40.729Z,4.22
2023-10-10T11:49:42.832Z,4.15
2023-10-10T11:52:58.946Z,4.65
2023-10-10T11:56:02.979Z,4.10
2023-10-10T11:59:15.438Z,4.25
2023-10-10T12:02:30.800Z,3.67
2023-10-10T12:05:32.639Z,3.92
2023-10-10T12:08:37.631Z,3.63
2023-10-10T12:11:40.440Z,4.18
2023-10-10T12:17:45.898Z,4.05
2023-10-10T12:20:47.675Z,3.95
2023-10-10T12:23:59.531Z,3.80
2023-10-10T12:27:02.999Z,3.90
2023-10-10T12:30:06.235Z,3.75
2023-10-10T12:33:09.638Z,3.88
2023-10-10T12:36:11.429Z,4.13
2023-10-10T12:39:16.322Z,4.20
2023-10-10T12:42:18.693Z,4.05
2023-10-10T12:45:22.809Z,4.35
2023-10-10T12:48:24.611Z,3.77
2023-10-10T12:51:26.822Z,3.70
2023-10-10T12:54:36.068Z,4.15
2023-10-10T12:57:38.643Z,4.03
2023-10-10T13:00:41.352Z,3.47
2023-10-10T13:03:49.063Z,4.32
2023-10-10T13:06:52.902Z,3.72
2023-10-10T13:09:56.439Z,3.90
2023-10-10T13:12:58.536Z,3.97
2023-10-10T13:16:23.471Z,3.53
2023-10-10T13:19:25.264Z,4.10
2023-10-10T13:22:31.012Z,3.58
2023-10-10T13:25:38.772Z,3.75
2023-10-10T13:28:45.723Z,3.38
2023-10-10T13:31:47.820Z,3.22
2023-10-10T13:34:59.458Z,3.30
2023-10-10T13:38:01.370Z,3.53
2023-10-10T13:41:04.442Z,3.72
2023-10-10T13:44:12.298Z,3.65
2023-10-10T13:47:28.507Z,3.63
2023-10-10T13:50:47.557Z,3.33
2023-10-10T13:53:59.519Z,3.70
2023-10-10T13:57:01.356Z,2.97
2023-10-10T14:00:19.524Z,3.60
2023-10-10T14:03:30.202Z,3.10
2023-10-10T14:06:46.880Z,3.35
2023-10-10T14:10:01.758Z,3.20
2023-10-10T14:13:20.479Z,3.78
2023-10-10T14:16:23.741Z,3.85
2023-10-10T14:19:25.870Z,3.05
2023-10-10T14:22:28.700Z,3.88
2023-10-10T14:25:39.624Z,3.03
2023-10-10T14:28:42.593Z,3.23
2023-10-10T14:31:46.411Z,3.00
2023-10-10T14:34:48.429Z,3.22
2023-10-10T14:38:00.605Z,3.30
2023-10-10T14:41:03.556Z,3.28
2023-10-10T14:44:07.207Z,3.73
2023-10-10T14:47:11.051Z,2.85
2023-10-10T14:50:14.372Z,3.55
2023-10-10T14:53:16.790Z,3.15
2023-10-10T14:56:25.727Z,2.97
2023-10-10T14:59:32.778Z,3.45
2023-10-10T15:02:36.769Z,3.17
2023-10-10T15:05:47.816Z,3.08
2023-10-10T15:08:49.671Z,2.95
2023-10-10T15:11:53.594Z,3.10
2023-10-10T15:14:58.590Z,3.10
2023-10-10T15:18:00.398Z,3.08
2023-10-10T15:21:02.092Z,3.20
2023-10-10T15:24:06.125Z,3.13
2023-10-10T15:27:07.854Z,3.13
2023-10-10T15:30:10.102Z,3.00
2023-10-10T15:33:18.632Z,3.67
2023-10-10T15:36:20.360Z,3.53
2023-10-10T15:39:23.758Z,3.17
2023-10-10T15:42:25.348Z,3.40
2023-10-10T15:45:27.041Z,3.23
2023-10-10T15:48:28.904Z,3.30
2023-10-10T15:51:39.264Z,3.05
2023-10-10T15:54:40.819Z,3.42
2023-10-10T15:57:42.342Z,3.38
2023-10-10T16:00:44.671Z,3.20
2023-10-10T16:03:48.679Z,3.42
2023-10-10T16:06:51.711Z,3.53
2023-10-10T16:09:53.704Z,3.30
2023-10-10T16:12:56.828Z,3.50
2023-10-10T16:15:58.876Z,3.00
2023-10-10T16:19:02.644Z,3.53
2023-10-10T16:22:06.396Z,3.72
2023-10-10T16:25:14.949Z,5.50
2023-10-10T16:28:16.652Z,4.00
2023-10-10T16:31:18.846Z,3.65
2023-10-10T16:34:20.558Z,5.03
2023-10-10T16:37:24.971Z,4.25
2023-10-10T16:40:30.660Z,8.00
2023-10-10T16:43:43.106Z,25.23
2023-10-10T16:46:53.834Z,22.90
2023-10-10T16:49:56.443Z,5.57
2023-10-10T16:53:09.865Z,12.48
2023-10-10T16:56:16.276Z,3.50
2023-10-10T16:59:18.420Z,3.22
2023-10-10T17:02:20.359Z,3.78
2023-10-10T17:05:24.912Z,4.00
2023-10-10T17:08:26.668Z,3.97
2023-10-10T17:11:31.107Z,3.70
2023-10-10T17:14:35.374Z,3.28
2023-10-10T17:17:38.129Z,3.63
2023-10-10T17:20:40.062Z,3.92
2023-10-10T17:23:42.193Z,3.17
2023-10-10T17:26:45.325Z,3.87
2023-10-10T17:29:47.588Z,3.65
2023-10-10T17:32:51.492Z,3.75
2023-10-10T17:35:53.212Z,3.67
2023-10-10T17:38:55.938Z,3.17
2023-10-10T17:42:12.993Z,3.53
2023-10-10T17:45:14.821Z,3.50
2023-10-10T17:48:18.523Z,3.22
2023-10-10T17:51:25.005Z,3.53
2023-10-10T17:54:29.993Z,3.63
2023-10-10T17:57:36.806Z,5.00
2023-10-10T18:00:38.642Z,4.50
2023-10-10T18:03:41.575Z,3.80
2023-10-10T18:06:43.522Z,4.72
2023-10-10T18:09:55.657Z,4.63
2023-10-10T18:13:08.673Z,3.90
2023-10-10T18:16:23.209Z,3.70
2023-10-10T18:19:34.285Z,3.90
2023-10-10T18:22:47.205Z,4.15
2023-10-10T18:25:55.125Z,5.47
2023-10-10T18:28:58.036Z,4.90
2023-10-10T18:32:09.177Z,5.03
2023-10-10T18:35:19.999Z,4.80
2023-10-10T18:38:22.679Z,4.70
2023-10-10T18:41:28.925Z,4.18
2023-10-10T18:44:34.171Z,4.75
2023-10-10T18:47:38.907Z,5.28
2023-10-10T18:50:42.009Z,5.13
2023-10-10T18:53:51.301Z,4.57
2023-10-10T18:56:55.795Z,5.50
2023-10-10T18:59:58.054Z,4.85
2023-10-10T19:06:14.647Z,4.82
2023-10-10T19:09:21.096Z,4.68
2023-10-10T19:12:31.400Z,5.10
2023-10-10T19:15:43.948Z,4.57
2023-10-10T19:18:51.358Z,4.82
2023-10-10T19:22:07.263Z,4.45
2023-10-10T19:25:14.222Z,4.93
2023-10-10T19:28:20.369Z,4.35
2023-10-10T19:31:28.861Z,4.43
2023-10-10T19:34:31.123Z,4.70
2023-10-10T19:37:35.052Z,4.50
2023-10-10T19:40:38.010Z,4.75
2023-10-10T19:43:43.245Z,6.07
2023-10-10T19:47:10.889Z,5.13
2023-10-10T19:50:22.341Z,4.65
2023-10-10T19:53:31.764Z,5.35
2023-10-10T19:57:11.639Z,4.82
2023-10-10T20:00:23.964Z,4.63
2023-10-10T20:03:29.847Z,4.45
2023-10-10T20:06:35.823Z,4.30
2023-10-10T20:09:47.507Z,4.22
2023-10-10T20:13:08.601Z,4.20
2023-10-10T20:16:16.548Z,4.72
2023-10-10T20:19:35.522Z,4.72
2023-10-10T20:22:47.650Z,4.88
2023-10-10T20:25:54.011Z,5.25
2023-10-10T20:28:59.360Z,6.40
2023-10-10T20:32:01.485Z,5.82
2023-10-10T20:35:13.316Z,5.40
2023-10-10T20:38:24.726Z,5.57
2023-10-10T20:41:30.349Z,5.70
2023-10-10T20:44:42.541Z,4.90
2023-10-10T20:47:56.323Z,6.80
2023-10-10T20:51:05.786Z,5.40
2023-10-10T20:54:09.794Z,4.38
2023-10-10T20:57:21.330Z,4.47
2023-10-10T21:00:31.366Z,6.05
2023-10-10T21:03:40.939Z,6.22
2023-10-10T21:06:56.577Z,7.35
2023-10-10T21:10:01.088Z,7.68
2023-10-10T21:13:06.521Z,5.40
2023-10-10T21:16:16.871Z,5.68
2023-10-10T21:19:39.540Z,5.97
2023-10-10T21:22:42.279Z,5.85
2023-10-10T21:25:43.891Z,6.40
2023-10-10T21:28:45.823Z,5.50
2023-10-10T21:31:51.268Z,6.60
2023-10-10T21:34:52.925Z,6.03
2023-10-10T21:37:56.689Z,5.63
2023-10-10T21:41:04.805Z,5.45
2023-10-10T21:44:06.480Z,5.03
2023-10-10T21:47:09.454Z,5.90
2023-10-10T21:50:11.368Z,6.88
2023-10-10T21:53:13.022Z,5.88
2023-10-10T21:56:14.675Z,5.90
2023-10-10T21:59:20.644Z,5.38
2023-10-10T22:02:22.357Z,6.07
2023-10-10T22:05:25.483Z,5.20
2023-10-10T22:08:27.294Z,4.85
2023-10-10T22:11:29.023Z,5.35
2023-10-10T22:14:30.612Z,5.15
2023-10-10T22:17:32.732Z,5.20
2023-10-10T22:20:37.519Z,4.97
2023-10-10T22:23:39.404Z,4.55
2023-10-10T22:26:41.227Z,5.10
2023-10-10T22:29:43.503Z,5.00
2023-10-10T22:32:48.945Z,4.97
2023-10-10T22:35:51.033Z,4.85
2023-10-10T22:38:53.964Z,4.53
2023-10-10T22:41:55.745Z,4.95
2023-10-10T22:44:58.947Z,5.88
2023-10-10T22:51:02.923Z,5.70
2023-10-10T22:54:07.090Z,6.40
2023-10-10T22:57:08.789Z,5.85
2023-10-10T23:00:14.664Z,5.68
2023-10-10T23:03:20.444Z,5.28
2023-10-10T23:06:23.623Z,5.15
2023-10-10T23:09:29.222Z,5.20
2023-10-10T23:12:32.733Z,5.03
2023-10-10T23:15:37.826Z,4.80
2023-10-10T23:18:40.681Z,5.00
2023-10-10T23:21:42.552Z,5.13
2023-10-10T23:24:44.242Z,5.05
2023-10-10T23:27:46.854Z,4.65
2023-10-10T23:30:48.530Z,4.38
2023-10-10T23:33:50.909Z,4.88
2023-10-10T23:36:52.613Z,5.43
2023-10-10T23:39:54.273Z,4.80
2023-10-10T23:42:55.888Z,4.90
2023-10-10T23:46:01.216Z,5.28
2023-10-10T23:49:04.601Z,5.53
2023-10-10T23:52:08.035Z,5.20
2023-10-10T23:55:12.245Z,5.15
2023-10-10T23:58:14.205Z,4.93
